sensor_id;sensor_type;location;lat;lon;timestamp;P1;durP1;ratioP1;P2;durP2;ratioP2
55364;SDS011;41245;45.384;20.390;2023-07-31T00:00:04;9.65;;;5.53;;
55364;SDS011;41245;45.384;20.390;2023-07-31T00:02:30;10.43;;;6.55;;
55364;SDS011;41245;45.384;20.390;2023-07-31T00:04:56;8.25;;;6.07;;
55364;SDS011;41245;45.384;20.390;2023-07-31T00:07:22;12.90;;;5.97;;
55364;SDS011;41245;45.384;20.390;2023-07-31T00:09:48;8.45;;;5.82;;
55364;SDS011;41245;45.384;20.390;2023-07-31T00:12:14;7.38;;;5.88;;
55364;SDS011;41245;45.384;20.390;2023-07-31T00:14:40;7.15;;;5.80;;
55364;SDS011;41245;45.384;20.390;2023-07-31T00:17:06;8.73;;;6.10;;
55364;SDS011;41245;45.384;20.390;2023-07-31T00:19:32;8.20;;;6.68;;
55364;SDS011;41245;45.384;20.390;2023-07-31T00:21:58;9.07;;;5.40;;
55364;SDS011;41245;45.384;20.390;2023-07-31T00:24:24;10.55;;;5.22;;
55364;SDS011;41245;45.384;20.390;2023-07-31T00:26:50;6.47;;;4.57;;
55364;SDS011;41245;45.384;20.390;2023-07-31T00:29:16;6.32;;;4.50;;
55364;SDS011;41245;45.384;20.390;2023-07-31T00:31:42;5.20;;;4.70;;
55364;SDS011;41245;45.384;20.390;2023-07-31T00:34:08;8.48;;;5.57;;
55364;SDS011;41245;45.384;20.390;2023-07-31T00:36:34;7.38;;;4.97;;
55364;SDS011;41245;45.384;20.390;2023-07-31T00:39:00;10.18;;;6.00;;
55364;SDS011;41245;45.384;20.390;2023-07-31T00:41:27;7.97;;;4.95;;
55364;SDS011;41245;45.384;20.390;2023-07-31T00:43:54;5.57;;;4.82;;
55364;SDS011;41245;45.384;20.390;2023-07-31T00:46:20;7.53;;;4.68;;
55364;SDS011;41245;45.384;20.390;2023-07-31T00:48:46;14.20;;;6.00;;
55364;SDS011;41245;45.384;20.390;2023-07-31T00:51:12;7.00;;;5.32;;
55364;SDS011;41245;45.384;20.390;2023-07-31T00:53:38;9.10;;;5.50;;
55364;SDS011;41245;45.384;20.390;2023-07-31T00:56:05;10.68;;;5.60;;
55364;SDS011;41245;45.384;20.390;2023-07-31T00:58:31;5.65;;;5.05;;
55364;SDS011;41245;45.384;20.390;2023-07-31T01:00:57;7.47;;;5.68;;
55364;SDS011;41245;45.384;20.390;2023-07-31T01:03:23;6.80;;;4.70;;
55364;SDS011;41245;45.384;20.390;2023-07-31T01:08:58;9.98;;;5.25;;
55364;SDS011;41245;45.384;20.390;2023-07-31T01:11:19;7.38;;;5.22;;
55364;SDS011;41245;45.384;20.390;2023-07-31T01:13:45;7.53;;;5.95;;
55364;SDS011;41245;45.384;20.390;2023-07-31T01:16:12;14.55;;;6.10;;
55364;SDS011;41245;45.384;20.390;2023-07-31T01:18:38;10.48;;;6.95;;
55364;SDS011;41245;45.384;20.390;2023-07-31T01:26:21;8.80;;;6.72;;
55364;SDS011;41245;45.384;20.390;2023-07-31T01:31:22;7.13;;;5.82;;
55364;SDS011;41245;45.384;20.390;2023-07-31T01:33:49;9.50;;;6.45;;
55364;SDS011;41245;45.384;20.390;2023-07-31T01:36:16;8.00;;;6.03;;
55364;SDS011;41245;45.384;20.390;2023-07-31T01:38:42;9.35;;;6.18;;
55364;SDS011;41245;45.384;20.390;2023-07-31T01:41:08;8.75;;;7.05;;
55364;SDS011;41245;45.384;20.390;2023-07-31T01:43:34;9.18;;;5.90;;
55364;SDS011;41245;45.384;20.390;2023-07-31T01:46:00;10.07;;;6.80;;
55364;SDS011;41245;45.384;20.390;2023-07-31T01:48:26;10.82;;;6.82;;
55364;SDS011;41245;45.384;20.390;2023-07-31T01:50:52;9.48;;;7.38;;
55364;SDS011;41245;45.384;20.390;2023-07-31T01:53:18;9.10;;;6.78;;
55364;SDS011;41245;45.384;20.390;2023-07-31T01:55:44;13.40;;;7.53;;
55364;SDS011;41245;45.384;20.390;2023-07-31T01:58:10;9.80;;;7.90;;
55364;SDS011;41245;45.384;20.390;2023-07-31T02:00:36;12.20;;;7.82;;
55364;SDS011;41245;45.384;20.390;2023-07-31T02:03:02;13.48;;;7.63;;
55364;SDS011;41245;45.384;20.390;2023-07-31T02:05:28;10.98;;;7.75;;
55364;SDS011;41245;45.384;20.390;2023-07-31T02:07:54;14.95;;;8.70;;
55364;SDS011;41245;45.384;20.390;2023-07-31T02:10:20;11.30;;;7.55;;
55364;SDS011;41245;45.384;20.390;2023-07-31T02:12:46;14.55;;;8.25;;
55364;SDS011;41245;45.384;20.390;2023-07-31T02:15:12;12.05;;;7.60;;
55364;SDS011;41245;45.384;20.390;2023-07-31T02:17:38;10.05;;;7.60;;
55364;SDS011;41245;45.384;20.390;2023-07-31T02:20:05;12.75;;;7.13;;
55364;SDS011;41245;45.384;20.390;2023-07-31T02:22:31;10.27;;;8.07;;
55364;SDS011;41245;45.384;20.390;2023-07-31T02:24:57;12.50;;;7.93;;
55364;SDS011;41245;45.384;20.390;2023-07-31T02:27:23;9.00;;;7.05;;
55364;SDS011;41245;45.384;20.390;2023-07-31T02:29:52;9.50;;;7.43;;
55364;SDS011;41245;45.384;20.390;2023-07-31T02:32:18;10.02;;;7.65;;
55364;SDS011;41245;45.384;20.390;2023-07-31T02:34:44;10.32;;;7.82;;
55364;SDS011;41245;45.384;20.390;2023-07-31T02:37:10;10.07;;;7.00;;
55364;SDS011;41245;45.384;20.390;2023-07-31T02:39:36;7.70;;;6.60;;
55364;SDS011;41245;45.384;20.390;2023-07-31T02:42:02;7.95;;;7.03;;
55364;SDS011;41245;45.384;20.390;2023-07-31T02:44:28;10.93;;;7.57;;
55364;SDS011;41245;45.384;20.390;2023-07-31T02:46:54;11.98;;;7.28;;
55364;SDS011;41245;45.384;20.390;2023-07-31T02:49:20;8.88;;;6.93;;
55364;SDS011;41245;45.384;20.390;2023-07-31T02:51:46;10.65;;;6.57;;
55364;SDS011;41245;45.384;20.390;2023-07-31T02:54:12;7.85;;;7.10;;
55364;SDS011;41245;45.384;20.390;2023-07-31T02:56:38;9.90;;;7.30;;
55364;SDS011;41245;45.384;20.390;2023-07-31T02:59:04;10.52;;;7.40;;
55364;SDS011;41245;45.384;20.390;2023-07-31T03:01:30;10.40;;;7.25;;
55364;SDS011;41245;45.384;20.390;2023-07-31T03:03:56;10.15;;;7.35;;
55364;SDS011;41245;45.384;20.390;2023-07-31T03:06:22;9.65;;;7.15;;
55364;SDS011;41245;45.384;20.390;2023-07-31T03:08:48;8.13;;;6.63;;
55364;SDS011;41245;45.384;20.390;2023-07-31T03:11:14;9.90;;;6.88;;
55364;SDS011;41245;45.384;20.390;2023-07-31T03:13:40;7.88;;;7.05;;
55364;SDS011;41245;45.384;20.390;2023-07-31T03:16:06;8.00;;;6.80;;
55364;SDS011;41245;45.384;20.390;2023-07-31T03:18:32;11.98;;;6.95;;
55364;SDS011;41245;45.384;20.390;2023-07-31T03:20:59;12.70;;;7.25;;
55364;SDS011;41245;45.384;20.390;2023-07-31T03:23:24;12.57;;;6.68;;
55364;SDS011;41245;45.384;20.390;2023-07-31T03:28:23;9.88;;;7.13;;
55364;SDS011;41245;45.384;20.390;2023-07-31T03:30:49;9.90;;;7.55;;
55364;SDS011;41245;45.384;20.390;2023-07-31T03:33:15;9.20;;;7.90;;
55364;SDS011;41245;45.384;20.390;2023-07-31T03:35:41;9.45;;;7.38;;
55364;SDS011;41245;45.384;20.390;2023-07-31T03:38:07;8.07;;;7.05;;
55364;SDS011;41245;45.384;20.390;2023-07-31T03:40:33;8.48;;;6.68;;
55364;SDS011;41245;45.384;20.390;2023-07-31T03:42:59;12.90;;;7.43;;
55364;SDS011;41245;45.384;20.390;2023-07-31T03:45:25;11.15;;;7.93;;
55364;SDS011;41245;45.384;20.390;2023-07-31T03:47:51;10.02;;;7.85;;
55364;SDS011;41245;45.384;20.390;2023-07-31T03:50:19;10.82;;;7.70;;
55364;SDS011;41245;45.384;20.390;2023-07-31T03:52:45;9.35;;;7.50;;
55364;SDS011;41245;45.384;20.390;2023-07-31T03:55:11;7.60;;;6.85;;
55364;SDS011;41245;45.384;20.390;2023-07-31T03:57:37;12.98;;;7.22;;
55364;SDS011;41245;45.384;20.390;2023-07-31T04:00:03;10.52;;;7.43;;
55364;SDS011;41245;45.384;20.390;2023-07-31T04:02:29;13.40;;;7.22;;
55364;SDS011;41245;45.384;20.390;2023-07-31T04:04:55;11.98;;;7.07;;
55364;SDS011;41245;45.384;20.390;2023-07-31T04:07:21;10.02;;;6.72;;
55364;SDS011;41245;45.384;20.390;2023-07-31T04:09:47;6.75;;;6.07;;
55364;SDS011;41245;45.384;20.390;2023-07-31T04:12:14;10.40;;;5.32;;
55364;SDS011;41245;45.384;20.390;2023-07-31T04:14:40;8.13;;;5.18;;
55364;SDS011;41245;45.384;20.390;2023-07-31T04:17:06;5.57;;;5.00;;
55364;SDS011;41245;45.384;20.390;2023-07-31T04:19:32;5.57;;;4.63;;
55364;SDS011;41245;45.384;20.390;2023-07-31T04:21:58;7.22;;;5.45;;
55364;SDS011;41245;45.384;20.390;2023-07-31T04:24:24;7.05;;;5.25;;
55364;SDS011;41245;45.384;20.390;2023-07-31T04:26:50;5.47;;;4.63;;
55364;SDS011;41245;45.384;20.390;2023-07-31T04:29:16;6.38;;;4.60;;
55364;SDS011;41245;45.384;20.390;2023-07-31T04:31:42;7.60;;;4.45;;
55364;SDS011;41245;45.384;20.390;2023-07-31T04:34:08;7.40;;;4.47;;
55364;SDS011;41245;45.384;20.390;2023-07-31T04:36:34;7.75;;;4.00;;
55364;SDS011;41245;45.384;20.390;2023-07-31T04:39:00;8.60;;;4.68;;
55364;SDS011;41245;45.384;20.390;2023-07-31T04:41:26;5.30;;;4.53;;
55364;SDS011;41245;45.384;20.390;2023-07-31T04:43:53;8.05;;;4.32;;
55364;SDS011;41245;45.384;20.390;2023-07-31T04:46:19;6.55;;;4.20;;
55364;SDS011;41245;45.384;20.390;2023-07-31T04:48:45;4.57;;;4.10;;
55364;SDS011;41245;45.384;20.390;2023-07-31T04:51:11;5.43;;;4.07;;
55364;SDS011;41245;45.384;20.390;2023-07-31T04:53:37;6.88;;;4.50;;
55364;SDS011;41245;45.384;20.390;2023-07-31T04:56:03;4.95;;;4.10;;
55364;SDS011;41245;45.384;20.390;2023-07-31T04:58:29;6.82;;;4.22;;
55364;SDS011;41245;45.384;20.390;2023-07-31T05:00:55;4.13;;;3.72;;
55364;SDS011;41245;45.384;20.390;2023-07-31T05:03:21;6.32;;;4.25;;
55364;SDS011;41245;45.384;20.390;2023-07-31T05:05:47;10.50;;;3.83;;
55364;SDS011;41245;45.384;20.390;2023-07-31T05:08:13;9.07;;;4.15;;
55364;SDS011;41245;45.384;20.390;2023-07-31T05:10:39;4.68;;;4.28;;
55364;SDS011;41245;45.384;20.390;2023-07-31T05:13:05;7.03;;;3.45;;
55364;SDS011;41245;45.384;20.390;2023-07-31T05:15:31;7.15;;;3.72;;
55364;SDS011;41245;45.384;20.390;2023-07-31T05:17:57;5.28;;;4.45;;
55364;SDS011;41245;45.384;20.390;2023-07-31T05:20:23;5.75;;;3.72;;
55364;SDS011;41245;45.384;20.390;2023-07-31T05:22:50;6.65;;;4.03;;
55364;SDS011;41245;45.384;20.390;2023-07-31T05:25:16;5.32;;;4.13;;
55364;SDS011;41245;45.384;20.390;2023-07-31T05:27:42;7.07;;;4.18;;
55364;SDS011;41245;45.384;20.390;2023-07-31T05:30:08;4.50;;;4.07;;
55364;SDS011;41245;45.384;20.390;2023-07-31T05:32:34;6.15;;;4.85;;
55364;SDS011;41245;45.384;20.390;2023-07-31T05:35:00;6.80;;;4.75;;
55364;SDS011;41245;45.384;20.390;2023-07-31T05:37:26;9.68;;;4.55;;
55364;SDS011;41245;45.384;20.390;2023-07-31T05:39:53;8.13;;;4.40;;
55364;SDS011;41245;45.384;20.390;2023-07-31T05:42:19;6.85;;;4.35;;
55364;SDS011;41245;45.384;20.390;2023-07-31T05:44:45;3.75;;;3.28;;
55364;SDS011;41245;45.384;20.390;2023-07-31T05:47:12;6.22;;;3.55;;
55364;SDS011;41245;45.384;20.390;2023-07-31T05:49:38;7.50;;;3.38;;
55364;SDS011;41245;45.384;20.390;2023-07-31T05:52:04;7.07;;;3.55;;
55364;SDS011;41245;45.384;20.390;2023-07-31T05:54:31;4.60;;;3.10;;
55364;SDS011;41245;45.384;20.390;2023-07-31T05:56:57;9.07;;;3.53;;
55364;SDS011;41245;45.384;20.390;2023-07-31T05:59:23;6.95;;;3.80;;
55364;SDS011;41245;45.384;20.390;2023-07-31T06:01:49;7.45;;;3.60;;
55364;SDS011;41245;45.384;20.390;2023-07-31T06:04:15;6.03;;;3.22;;
55364;SDS011;41245;45.384;20.390;2023-07-31T06:06:41;4.07;;;3.22;;
55364;SDS011;41245;45.384;20.390;2023-07-31T06:09:07;3.88;;;3.50;;
55364;SDS011;41245;45.384;20.390;2023-07-31T06:11:33;3.30;;;2.85;;
55364;SDS011;41245;45.384;20.390;2023-07-31T06:13:59;3.00;;;2.60;;
55364;SDS011;41245;45.384;20.390;2023-07-31T06:16:25;7.45;;;3.30;;
55364;SDS011;41245;45.384;20.390;2023-07-31T06:18:52;3.67;;;2.83;;
55364;SDS011;41245;45.384;20.390;2023-07-31T06:21:18;4.10;;;3.05;;
55364;SDS011;41245;45.384;20.390;2023-07-31T06:23:44;2.72;;;2.50;;
55364;SDS011;41245;45.384;20.390;2023-07-31T06:26:09;2.90;;;2.60;;
55364;SDS011;41245;45.384;20.390;2023-07-31T06:28:35;3.90;;;2.45;;
55364;SDS011;41245;45.384;20.390;2023-07-31T06:31:01;6.70;;;2.97;;
55364;SDS011;41245;45.384;20.390;2023-07-31T06:33:27;3.22;;;2.67;;
55364;SDS011;41245;45.384;20.390;2023-07-31T06:35:53;5.22;;;3.13;;
55364;SDS011;41245;45.384;20.390;2023-07-31T06:38:21;3.13;;;2.65;;
55364;SDS011;41245;45.384;20.390;2023-07-31T06:40:48;3.30;;;3.00;;
55364;SDS011;41245;45.384;20.390;2023-07-31T06:43:14;2.97;;;2.30;;
55364;SDS011;41245;45.384;20.390;2023-07-31T06:45:40;3.50;;;3.13;;
55364;SDS011;41245;45.384;20.390;2023-07-31T06:48:06;4.45;;;3.08;;
55364;SDS011;41245;45.384;20.390;2023-07-31T06:50:32;4.10;;;3.17;;
55364;SDS011;41245;45.384;20.390;2023-07-31T06:52:58;4.00;;;2.85;;
55364;SDS011;41245;45.384;20.390;2023-07-31T06:55:25;6.80;;;3.22;;
55364;SDS011;41245;45.384;20.390;2023-07-31T06:57:52;4.60;;;2.80;;
55364;SDS011;41245;45.384;20.390;2023-07-31T07:00:18;4.57;;;3.28;;
55364;SDS011;41245;45.384;20.390;2023-07-31T07:02:45;3.97;;;2.92;;
55364;SDS011;41245;45.384;20.390;2023-07-31T07:07:40;3.85;;;3.17;;
55364;SDS011;41245;45.384;20.390;2023-07-31T07:10:07;4.45;;;2.90;;
55364;SDS011;41245;45.384;20.390;2023-07-31T07:12:33;5.80;;;3.15;;
55364;SDS011;41245;45.384;20.390;2023-07-31T07:15:00;5.25;;;3.45;;
55364;SDS011;41245;45.384;20.390;2023-07-31T07:17:27;5.90;;;2.47;;
55364;SDS011;41245;45.384;20.390;2023-07-31T07:19:53;4.18;;;3.10;;
55364;SDS011;41245;45.384;20.390;2023-07-31T07:22:20;3.03;;;2.63;;
55364;SDS011;41245;45.384;20.390;2023-07-31T07:24:47;6.13;;;2.72;;
55364;SDS011;41245;45.384;20.390;2023-07-31T07:27:13;4.82;;;3.28;;
55364;SDS011;41245;45.384;20.390;2023-07-31T07:29:40;3.47;;;3.17;;
55364;SDS011;41245;45.384;20.390;2023-07-31T07:32:06;5.40;;;2.70;;
55364;SDS011;41245;45.384;20.390;2023-07-31T07:34:32;3.75;;;3.35;;
55364;SDS011;41245;45.384;20.390;2023-07-31T07:36:58;3.05;;;2.70;;
55364;SDS011;41245;45.384;20.390;2023-07-31T07:39:24;4.38;;;2.50;;
55364;SDS011;41245;45.384;20.390;2023-07-31T07:41:50;2.55;;;2.28;;
55364;SDS011;41245;45.384;20.390;2023-07-31T07:44:18;4.88;;;2.97;;
55364;SDS011;41245;45.384;20.390;2023-07-31T07:46:44;3.13;;;2.30;;
55364;SDS011;41245;45.384;20.390;2023-07-31T07:49:10;2.28;;;2.08;;
55364;SDS011;41245;45.384;20.390;2023-07-31T07:51:36;3.33;;;1.83;;
55364;SDS011;41245;45.384;20.390;2023-07-31T07:54:02;5.10;;;1.98;;
55364;SDS011;41245;45.384;20.390;2023-07-31T07:56:28;3.33;;;2.25;;
55364;SDS011;41245;45.384;20.390;2023-07-31T07:58:54;3.10;;;2.08;;
55364;SDS011;41245;45.384;20.390;2023-07-31T08:01:20;5.85;;;2.10;;
55364;SDS011;41245;45.384;20.390;2023-07-31T08:03:47;2.72;;;1.80;;
55364;SDS011;41245;45.384;20.390;2023-07-31T08:06:13;2.97;;;2.47;;
55364;SDS011;41245;45.384;20.390;2023-07-31T08:08:39;3.78;;;2.67;;
55364;SDS011;41245;45.384;20.390;2023-07-31T08:11:05;2.20;;;1.98;;
55364;SDS011;41245;45.384;20.390;2023-07-31T08:13:31;2.28;;;1.65;;
55364;SDS011;41245;45.384;20.390;2023-07-31T08:15:58;4.72;;;2.28;;
55364;SDS011;41245;45.384;20.390;2023-07-31T08:18:24;3.67;;;2.08;;
55364;SDS011;41245;45.384;20.390;2023-07-31T08:20:50;3.22;;;1.75;;
55364;SDS011;41245;45.384;20.390;2023-07-31T08:23:16;2.22;;;1.60;;
55364;SDS011;41245;45.384;20.390;2023-07-31T08:25:42;3.63;;;1.98;;
55364;SDS011;41245;45.384;20.390;2023-07-31T08:28:08;1.63;;;1.50;;
55364;SDS011;41245;45.384;20.390;2023-07-31T08:30:34;3.45;;;1.85;;
55364;SDS011;41245;45.384;20.390;2023-07-31T08:33:00;1.80;;;1.70;;
55364;SDS011;41245;45.384;20.390;2023-07-31T08:35:26;2.65;;;1.73;;
55364;SDS011;41245;45.384;20.390;2023-07-31T08:37:55;3.75;;;1.27;;
55364;SDS011;41245;45.384;20.390;2023-07-31T08:40:21;2.38;;;1.52;;
55364;SDS011;41245;45.384;20.390;2023-07-31T08:42:48;2.10;;;1.30;;
55364;SDS011;41245;45.384;20.390;2023-07-31T08:45:15;2.10;;;1.55;;
55364;SDS011;41245;45.384;20.390;2023-07-31T08:47:44;2.33;;;1.45;;
55364;SDS011;41245;45.384;20.390;2023-07-31T08:50:14;3.38;;;1.65;;
55364;SDS011;41245;45.384;20.390;2023-07-31T08:52:41;5.30;;;1.45;;
55364;SDS011;41245;45.384;20.390;2023-07-31T08:55:07;3.38;;;1.65;;
55364;SDS011;41245;45.384;20.390;2023-07-31T08:57:35;4.78;;;1.80;;
55364;SDS011;41245;45.384;20.390;2023-07-31T09:00:02;6.78;;;1.70;;
55364;SDS011;41245;45.384;20.390;2023-07-31T09:02:30;2.28;;;1.45;;
55364;SDS011;41245;45.384;20.390;2023-07-31T09:04:57;5.07;;;1.63;;
55364;SDS011;41245;45.384;20.390;2023-07-31T09:07:23;3.22;;;1.63;;
55364;SDS011;41245;45.384;20.390;2023-07-31T09:09:50;5.95;;;2.10;;
55364;SDS011;41245;45.384;20.390;2023-07-31T09:12:16;3.67;;;1.70;;
55364;SDS011;41245;45.384;20.390;2023-07-31T09:14:42;1.75;;;1.20;;
55364;SDS011;41245;45.384;20.390;2023-07-31T09:17:10;2.33;;;1.58;;
55364;SDS011;41245;45.384;20.390;2023-07-31T09:19:36;3.92;;;1.63;;
55364;SDS011;41245;45.384;20.390;2023-07-31T09:22:03;3.58;;;1.83;;
55364;SDS011;41245;45.384;20.390;2023-07-31T09:24:30;3.15;;;1.50;;
55364;SDS011;41245;45.384;20.390;2023-07-31T09:26:57;2.10;;;1.58;;
55364;SDS011;41245;45.384;20.390;2023-07-31T09:29:24;11.27;;;1.90;;
55364;SDS011;41245;45.384;20.390;2023-07-31T09:31:51;2.05;;;1.60;;
55364;SDS011;41245;45.384;20.390;2023-07-31T09:34:17;4.07;;;1.85;;
55364;SDS011;41245;45.384;20.390;2023-07-31T09:36:47;3.70;;;1.55;;
55364;SDS011;41245;45.384;20.390;2023-07-31T09:39:14;1.73;;;1.38;;
55364;SDS011;41245;45.384;20.390;2023-07-31T09:41:53;3.20;;;1.73;;
55364;SDS011;41245;45.384;20.390;2023-07-31T09:44:19;3.38;;;1.90;;
55364;SDS011;41245;45.384;20.390;2023-07-31T09:46:46;2.63;;;1.13;;
55364;SDS011;41245;45.384;20.390;2023-07-31T09:49:13;4.32;;;1.58;;
55364;SDS011;41245;45.384;20.390;2023-07-31T09:51:40;3.03;;;1.30;;
55364;SDS011;41245;45.384;20.390;2023-07-31T09:54:11;3.28;;;1.60;;
55364;SDS011;41245;45.384;20.390;2023-07-31T09:56:39;5.15;;;1.58;;
55364;SDS011;41245;45.384;20.390;2023-07-31T09:59:07;4.97;;;1.45;;
55364;SDS011;41245;45.384;20.390;2023-07-31T10:01:33;1.88;;;1.10;;
55364;SDS011;41245;45.384;20.390;2023-07-31T10:03:59;5.07;;;2.10;;
55364;SDS011;41245;45.384;20.390;2023-07-31T10:06:26;4.38;;;1.70;;
55364;SDS011;41245;45.384;20.390;2023-07-31T10:08:53;2.35;;;1.30;;
55364;SDS011;41245;45.384;20.390;2023-07-31T10:11:20;1.92;;;1.30;;
55364;SDS011;41245;45.384;20.390;2023-07-31T10:13:48;2.05;;;1.50;;
55364;SDS011;41245;45.384;20.390;2023-07-31T10:16:14;1.55;;;1.35;;
55364;SDS011;41245;45.384;20.390;2023-07-31T10:18:41;2.05;;;1.33;;
55364;SDS011;41245;45.384;20.390;2023-07-31T10:21:08;4.53;;;1.40;;
55364;SDS011;41245;45.384;20.390;2023-07-31T10:23:35;1.25;;;1.15;;
55364;SDS011;41245;45.384;20.390;2023-07-31T10:26:01;2.92;;;1.60;;
55364;SDS011;41245;45.384;20.390;2023-07-31T10:28:28;6.13;;;1.67;;
55364;SDS011;41245;45.384;20.390;2023-07-31T10:30:55;2.13;;;1.40;;
55364;SDS011;41245;45.384;20.390;2023-07-31T10:33:21;6.93;;;2.67;;
55364;SDS011;41245;45.384;20.390;2023-07-31T10:35:47;3.28;;;1.70;;
55364;SDS011;41245;45.384;20.390;2023-07-31T10:38:13;2.15;;;1.52;;
55364;SDS011;41245;45.384;20.390;2023-07-31T10:40:40;3.95;;;1.77;;
55364;SDS011;41245;45.384;20.390;2023-07-31T10:43:07;5.35;;;1.88;;
55364;SDS011;41245;45.384;20.390;2023-07-31T10:45:37;1.98;;;1.48;;
55364;SDS011;41245;45.384;20.390;2023-07-31T10:48:04;1.98;;;1.50;;
55364;SDS011;41245;45.384;20.390;2023-07-31T10:50:31;4.55;;;1.58;;
55364;SDS011;41245;45.384;20.390;2023-07-31T10:52:58;2.22;;;1.50;;
55364;SDS011;41245;45.384;20.390;2023-07-31T10:57:55;5.75;;;1.67;;
55364;SDS011;41245;45.384;20.390;2023-07-31T11:00:22;2.10;;;1.58;;
55364;SDS011;41245;45.384;20.390;2023-07-31T11:02:57;1.98;;;1.70;;
55364;SDS011;41245;45.384;20.390;2023-07-31T11:08:14;2.90;;;1.52;;
55364;SDS011;41245;45.384;20.390;2023-07-31T11:10:41;3.83;;;1.80;;
55364;SDS011;41245;45.384;20.390;2023-07-31T11:13:07;1.48;;;1.23;;
55364;SDS011;41245;45.384;20.390;2023-07-31T11:15:33;8.32;;;1.38;;
55364;SDS011;41245;45.384;20.390;2023-07-31T11:18:03;3.83;;;1.73;;
55364;SDS011;41245;45.384;20.390;2023-07-31T11:20:30;5.53;;;1.55;;
55364;SDS011;41245;45.384;20.390;2023-07-31T11:23:03;4.90;;;1.95;;
55364;SDS011;41245;45.384;20.390;2023-07-31T11:25:30;8.80;;;1.70;;
55364;SDS011;41245;45.384;20.390;2023-07-31T11:27:57;2.80;;;1.15;;
55364;SDS011;41245;45.384;20.390;2023-07-31T11:30:23;2.13;;;1.35;;
55364;SDS011;41245;45.384;20.390;2023-07-31T11:32:49;1.98;;;1.42;;
55364;SDS011;41245;45.384;20.390;2023-07-31T11:35:16;1.95;;;1.50;;
55364;SDS011;41245;45.384;20.390;2023-07-31T11:37:43;4.65;;;1.80;;
55364;SDS011;41245;45.384;20.390;2023-07-31T11:40:10;3.95;;;1.38;;
55364;SDS011;41245;45.384;20.390;2023-07-31T11:42:37;6.35;;;1.70;;
55364;SDS011;41245;45.384;20.390;2023-07-31T11:45:04;4.82;;;1.48;;
55364;SDS011;41245;45.384;20.390;2023-07-31T11:47:31;2.97;;;1.50;;
55364;SDS011;41245;45.384;20.390;2023-07-31T11:49:59;6.53;;;1.77;;
55364;SDS011;41245;45.384;20.390;2023-07-31T11:52:26;4.72;;;1.50;;
55364;SDS011;41245;45.384;20.390;2023-07-31T11:54:53;7.32;;;2.10;;
55364;SDS011;41245;45.384;20.390;2023-07-31T11:57:19;3.70;;;2.00;;
55364;SDS011;41245;45.384;20.390;2023-07-31T11:59:45;1.92;;;1.25;;
55364;SDS011;41245;45.384;20.390;2023-07-31T12:02:11;3.20;;;1.42;;
55364;SDS011;41245;45.384;20.390;2023-07-31T12:04:37;4.35;;;1.30;;
55364;SDS011;41245;45.384;20.390;2023-07-31T12:07:04;3.20;;;1.40;;
55364;SDS011;41245;45.384;20.390;2023-07-31T12:09:30;4.63;;;1.30;;
55364;SDS011;41245;45.384;20.390;2023-07-31T12:11:56;3.25;;;1.70;;
55364;SDS011;41245;45.384;20.390;2023-07-31T12:14:26;2.60;;;1.40;;
55364;SDS011;41245;45.384;20.390;2023-07-31T12:16:55;4.38;;;1.13;;
55364;SDS011;41245;45.384;20.390;2023-07-31T12:19:21;5.07;;;1.65;;
55364;SDS011;41245;45.384;20.390;2023-07-31T12:21:49;3.08;;;1.42;;
55364;SDS011;41245;45.384;20.390;2023-07-31T12:24:17;5.95;;;1.48;;
55364;SDS011;41245;45.384;20.390;2023-07-31T12:26:45;2.28;;;1.00;;
55364;SDS011;41245;45.384;20.390;2023-07-31T12:29:11;9.30;;;2.15;;
55364;SDS011;41245;45.384;20.390;2023-07-31T12:31:37;3.45;;;1.50;;
55364;SDS011;41245;45.384;20.390;2023-07-31T12:34:16;2.10;;;1.20;;
55364;SDS011;41245;45.384;20.390;2023-07-31T12:36:43;2.70;;;1.58;;
55364;SDS011;41245;45.384;20.390;2023-07-31T12:39:09;2.63;;;1.52;;
55364;SDS011;41245;45.384;20.390;2023-07-31T12:41:35;2.72;;;1.55;;
55364;SDS011;41245;45.384;20.390;2023-07-31T12:44:02;1.60;;;1.20;;
55364;SDS011;41245;45.384;20.390;2023-07-31T12:46:28;4.78;;;1.50;;
55364;SDS011;41245;45.384;20.390;2023-07-31T12:48:54;3.17;;;1.60;;
55364;SDS011;41245;45.384;20.390;2023-07-31T12:51:20;1.77;;;0.90;;
55364;SDS011;41245;45.384;20.390;2023-07-31T12:53:46;5.25;;;1.13;;
55364;SDS011;41245;45.384;20.390;2023-07-31T12:56:13;1.60;;;1.15;;
55364;SDS011;41245;45.384;20.390;2023-07-31T12:58:39;3.53;;;1.35;;
55364;SDS011;41245;45.384;20.390;2023-07-31T13:01:05;1.67;;;1.08;;
55364;SDS011;41245;45.384;20.390;2023-07-31T13:03:31;6.20;;;1.50;;
55364;SDS011;41245;45.384;20.390;2023-07-31T13:05:57;5.82;;;1.55;;
55364;SDS011;41245;45.384;20.390;2023-07-31T13:08:23;8.43;;;1.40;;
55364;SDS011;41245;45.384;20.390;2023-07-31T13:10:49;5.22;;;1.88;;
55364;SDS011;41245;45.384;20.390;2023-07-31T13:13:15;2.60;;;1.10;;
55364;SDS011;41245;45.384;20.390;2023-07-31T13:15:41;2.63;;;1.40;;
55364;SDS011;41245;45.384;20.390;2023-07-31T13:18:07;6.32;;;1.27;;
55364;SDS011;41245;45.384;20.390;2023-07-31T13:20:33;3.72;;;1.67;;
55364;SDS011;41245;45.384;20.390;2023-07-31T13:22:59;5.78;;;1.15;;
55364;SDS011;41245;45.384;20.390;2023-07-31T13:25:25;11.05;;;2.22;;
55364;SDS011;41245;45.384;20.390;2023-07-31T13:27:52;3.38;;;1.33;;
55364;SDS011;41245;45.384;20.390;2023-07-31T13:30:18;4.18;;;1.35;;
55364;SDS011;41245;45.384;20.390;2023-07-31T13:32:44;6.30;;;1.77;;
55364;SDS011;41245;45.384;20.390;2023-07-31T13:35:10;4.13;;;1.73;;
55364;SDS011;41245;45.384;20.390;2023-07-31T13:37:37;6.45;;;1.65;;
55364;SDS011;41245;45.384;20.390;2023-07-31T13:40:03;8.18;;;2.13;;
55364;SDS011;41245;45.384;20.390;2023-07-31T13:42:30;2.63;;;1.20;;
55364;SDS011;41245;45.384;20.390;2023-07-31T13:44:56;2.38;;;1.02;;
55364;SDS011;41245;45.384;20.390;2023-07-31T13:47:22;3.80;;;1.30;;
55364;SDS011;41245;45.384;20.390;2023-07-31T13:49:48;4.13;;;1.83;;
55364;SDS011;41245;45.384;20.390;2023-07-31T13:52:14;2.08;;;1.63;;
55364;SDS011;41245;45.384;20.390;2023-07-31T13:54:40;4.32;;;1.50;;
55364;SDS011;41245;45.384;20.390;2023-07-31T13:57:08;2.90;;;1.35;;
55364;SDS011;41245;45.384;20.390;2023-07-31T13:59:34;3.72;;;1.10;;
55364;SDS011;41245;45.384;20.390;2023-07-31T14:02:00;4.53;;;0.88;;
55364;SDS011;41245;45.384;20.390;2023-07-31T14:04:26;4.07;;;1.20;;
55364;SDS011;41245;45.384;20.390;2023-07-31T14:06:52;5.13;;;1.45;;
55364;SDS011;41245;45.384;20.390;2023-07-31T14:09:18;3.70;;;1.92;;
55364;SDS011;41245;45.384;20.390;2023-07-31T14:11:44;3.05;;;1.25;;
55364;SDS011;41245;45.384;20.390;2023-07-31T14:14:10;5.07;;;2.45;;
55364;SDS011;41245;45.384;20.390;2023-07-31T14:16:36;3.95;;;2.40;;
55364;SDS011;41245;45.384;20.390;2023-07-31T14:19:02;5.93;;;1.48;;
55364;SDS011;41245;45.384;20.390;2023-07-31T14:21:28;9.18;;;5.28;;
55364;SDS011;41245;45.384;20.390;2023-07-31T14:23:54;10.43;;;2.95;;
55364;SDS011;41245;45.384;20.390;2023-07-31T14:26:20;2.90;;;1.75;;
55364;SDS011;41245;45.384;20.390;2023-07-31T14:28:46;5.05;;;2.00;;
55364;SDS011;41245;45.384;20.390;2023-07-31T14:31:12;5.95;;;1.10;;
55364;SDS011;41245;45.384;20.390;2023-07-31T14:33:39;2.70;;;1.40;;
55364;SDS011;41245;45.384;20.390;2023-07-31T14:36:05;1.90;;;1.42;;
55364;SDS011;41245;45.384;20.390;2023-07-31T14:38:31;5.85;;;1.98;;
55364;SDS011;41245;45.384;20.390;2023-07-31T14:40:57;5.95;;;1.80;;
55364;SDS011;41245;45.384;20.390;2023-07-31T14:43:23;4.15;;;1.42;;
55364;SDS011;41245;45.384;20.390;2023-07-31T14:45:49;5.80;;;1.65;;
55364;SDS011;41245;45.384;20.390;2023-07-31T14:48:16;1.65;;;1.40;;